sensor_id;sensor_type;location;lat;lon;timestamp;pressure;altitude;pressure_sealevel;temperature;humidity
85897;BME280;76442;52.412;16.940;2024-03-08T00:10:09;102069.0;;;-1.03;88.42
85897;BME280;76442;52.412;16.940;2024-03-08T00:30:10;102073.0;;;-1.12;88.95
85897;BME280;76442;52.412;16.940;2024-03-08T00:45:09;102066.0;;;-1.31;88.69
85897;BME280;76442;52.412;16.940;2024-03-08T01:00:09;102068.0;;;-1.33;89.96
85897;BME280;76442;52.412;16.940;2024-03-08T01:15:09;102056.0;;;-1.26;90.63
85897;BME280;76442;52.412;16.940;2024-03-08T01:30:09;102046.0;;;-1.11;90.26
85897;BME280;76442;52.412;16.940;2024-03-08T01:45:09;102039.0;;;-1.15;89.41
85897;BME280;76442;52.412;16.940;2024-03-08T02:00:09;102032.0;;;-1.23;90.08
85897;BME280;76442;52.412;16.940;2024-03-08T02:15:09;102015.0;;;-1.29;89.99
85897;BME280;76442;52.412;16.940;2024-03-08T02:30:09;102002.0;;;-1.54;89.67
85897;BME280;76442;52.412;16.940;2024-03-08T02:45:09;102008.0;;;-1.72;91.21
85897;BME280;76442;52.412;16.940;2024-03-08T03:05:10;101988.0;;;-1.62;92.08
85897;BME280;76442;52.412;16.940;2024-03-08T03:20:10;101987.0;;;-1.6;90.97
85897;BME280;76442;52.412;16.940;2024-03-08T03:35:10;101999.0;;;-1.57;91.33
85897;BME280;76442;52.412;16.940;2024-03-08T03:50:10;102001.0;;;-1.78;91.01
85897;BME280;76442;52.412;16.940;2024-03-08T04:05:10;101987.0;;;-1.92;91.53
85897;BME280;76442;52.412;16.940;2024-03-08T04:20:09;101982.0;;;-1.9;91.61
85897;BME280;76442;52.412;16.940;2024-03-08T04:35:09;101975.0;;;-1.91;91.37
85897;BME280;76442;52.412;16.940;2024-03-08T04:55:09;101974.0;;;-1.96;91.24
85897;BME280;76442;52.412;16.940;2024-03-08T05:10:09;101979.0;;;-1.93;91.59
85897;BME280;76442;52.412;16.940;2024-03-08T05:25:09;101974.0;;;-2.01;91.34
85897;BME280;76442;52.412;16.940;2024-03-08T05:40:09;101973.0;;;-1.87;91.09
85897;BME280;76442;52.412;16.940;2024-03-08T05:55:09;101964.0;;;-0.9;89.54
85897;BME280;76442;52.412;16.940;2024-03-08T06:20:09;101979.0;;;0.67;82.31
85897;BME280;76442;52.412;16.940;2024-03-08T06:35:09;101971.0;;;1.42;78.2
85897;BME280;76442;52.412;16.940;2024-03-08T06:50:09;101971.0;;;1.63;78.17
85897;BME280;76442;52.412;16.940;2024-03-08T07:05:09;101969.0;;;2.36;76.56
85897;BME280;76442;52.412;16.940;2024-03-08T07:20:09;101961.0;;;2.87;74.78
85897;BME280;76442;52.412;16.940;2024-03-08T07:50:10;101946.0;;;4.07;71.93
85897;BME280;76442;52.412;16.940;2024-03-08T08:10:09;101933.0;;;5.2;63.74
85897;BME280;76442;52.412;16.940;2024-03-08T08:30:09;101935.0;;;5.52;62.48
85897;BME280;76442;52.412;16.940;2024-03-08T08:45:09;101934.0;;;5.86;61.13
85897;BME280;76442;52.412;16.940;2024-03-08T09:00:09;101918.0;;;5.87;60.74
85897;BME280;76442;52.412;16.940;2024-03-08T09:35:09;101887.0;;;6.37;58.33
85897;BME280;76442;52.412;16.940;2024-03-08T09:50:09;101878.0;;;6.34;57.45
85897;BME280;76442;52.412;16.940;2024-03-08T10:05:09;101858.0;;;6.57;56.79
85897;BME280;76442;52.412;16.940;2024-03-08T10:20:09;101851.0;;;6.28;54.86
85897;BME280;76442;52.412;16.940;2024-03-08T10:35:09;101847.0;;;5.88;54.61
85897;BME280;76442;52.412;16.940;2024-03-08T10:50:09;101839.0;;;6.07;56.15
85897;BME280;76442;52.412;16.940;2024-03-08T11:15:09;101810.0;;;6.09;56.08
85897;BME280;76442;52.412;16.940;2024-03-08T11:30:09;101796.0;;;6.06;57.16
85897;BME280;76442;52.412;16.940;2024-03-08T11:45:09;101780.0;;;6.2;56.75
85897;BME280;76442;52.412;16.940;2024-03-08T12:00:09;101768.0;;;6.32;55.29
85897;BME280;76442;52.412;16.940;2024-03-08T12:15:09;101756.0;;;6.44;54.55
85897;BME280;76442;52.412;16.940;2024-03-08T12:30:09;101737.0;;;6.58;54.42
85897;BME280;76442;52.412;16.940;2024-03-08T12:45:09;101717.0;;;6.62;55.92
85897;BME280;76442;52.412;16.940;2024-03-08T13:00:09;101700.0;;;6.77;54.47
85897;BME280;76442;52.412;16.940;2024-03-08T13:15:09;101681.0;;;6.85;55.31
85897;BME280;76442;52.412;16.940;2024-03-08T13:40:09;101653.0;;;7.03;52.13
85897;BME280;76442;52.412;16.940;2024-03-08T13:55:09;101632.0;;;7.1;52.47
85897;BME280;76442;52.412;16.940;2024-03-08T14:10:09;101620.0;;;7.12;49.78
85897;BME280;76442;52.412;16.940;2024-03-08T14:25:09;101604.0;;;7.19;50.9
85897;BME280;76442;52.412;16.940;2024-03-08T14:40:09;101594.0;;;7.21;50.55
85897;BME280;76442;52.412;16.940;2024-03-08T14:55:09;101575.0;;;7.31;48.81
85897;BME280;76442;52.412;16.940;2024-03-08T15:15:09;101570.0;;;7.27;50.23
85897;BME280;76442;52.412;16.940;2024-03-08T18:50:09;101496.0;;;3.95;64.75
85897;BME280;76442;52.412;16.940;2024-03-08T19:05:09;101491.0;;;3.7;65.03
85897;BME280;76442;52.412;16.940;2024-03-08T19:35:10;101488.0;;;3.14;68.57
85897;BME280;76442;52.412;16.940;2024-03-08T19:50:10;101480.0;;;3.06;66.75
85897;BME280;76442;52.412;16.940;2024-03-08T20:10:09;101470.0;;;2.72;70.77
85897;BME280;76442;52.412;16.940;2024-03-08T20:35:09;101459.0;;;2.56;68.98
85897;BME280;76442;52.412;16.940;2024-03-08T21:30:09;101417.0;;;1.85;72.61
85897;BME280;76442;52.412;16.940;2024-03-08T21:45:09;101410.0;;;2.05;71.54
85897;BME280;76442;52.412;16.940;2024-03-08T22:00:09;101400.0;;;1.9;74.79
85897;BME280;76442;52.412;16.940;2024-03-08T22:20:10;101384.0;;;2.07;73.29
85897;BME280;76442;52.412;16.940;2024-03-08T22:50:09;101370.0;;;1.99;73.11
